sensor_id;sensor_type;location;lat;lon;timestamp;pressure;altitude;pressure_sealevel;temperature;humidity
9740;BME280;4909;42.680;26.324;2022-09-09T00:00:27;98850.59;;;22.00;62.07
9740;BME280;4909;42.680;26.324;2022-09-09T00:03:02;98834.31;;;21.90;62.23
9740;BME280;4909;42.680;26.324;2022-09-09T00:05:41;98838.28;;;21.86;62.64
9740;BME280;4909;42.680;26.324;2022-09-09T00:08:17;98838.72;;;21.91;62.86
9740;BME280;4909;42.680;26.324;2022-09-09T00:10:48;98833.53;;;21.99;62.80
9740;BME280;4909;42.680;26.324;2022-09-09T00:13:22;98803.00;;;21.57;62.90
9740;BME280;4909;42.680;26.324;2022-09-09T00:15:59;98840.97;;;21.86;61.92
9740;BME280;4909;42.680;26.324;2022-09-09T00:18:30;98844.78;;;21.84;60.84
9740;BME280;4909;42.680;26.324;2022-09-09T00:21:05;98860.06;;;21.74;61.65
9740;BME280;4909;42.680;26.324;2022-09-09T00:23:35;98866.03;;;21.67;62.35
9740;BME280;4909;42.680;26.324;2022-09-09T00:26:09;98867.28;;;21.63;62.52
9740;BME280;4909;42.680;26.324;2022-09-09T00:28:43;98863.78;;;21.52;63.59
9740;BME280;4909;42.680;26.324;2022-09-09T00:31:18;98848.75;;;21.80;63.08
9740;BME280;4909;42.680;26.324;2022-09-09T00:33:49;98847.63;;;21.82;62.71
9740;BME280;4909;42.680;26.324;2022-09-09T00:36:20;98856.84;;;21.80;62.97
9740;BME280;4909;42.680;26.324;2022-09-09T00:38:49;98847.25;;;21.66;63.24
9740;BME280;4909;42.680;26.324;2022-09-09T00:41:22;98840.47;;;21.72;63.18
9740;BME280;4909;42.680;26.324;2022-09-09T00:43:56;98842.47;;;21.79;62.60
9740;BME280;4909;42.680;26.324;2022-09-09T00:46:53;98840.59;;;21.70;62.67
9740;BME280;4909;42.680;26.324;2022-09-09T00:49:30;98841.38;;;21.61;62.99
9740;BME280;4909;42.680;26.324;2022-09-09T00:52:12;98840.75;;;21.68;62.40
9740;BME280;4909;42.680;26.324;2022-09-09T00:54:48;98842.47;;;21.79;61.23
9740;BME280;4909;42.680;26.324;2022-09-09T00:57:25;98840.00;;;21.87;61.24
9740;BME280;4909;42.680;26.324;2022-09-09T00:59:59;98834.66;;;21.76;61.71
9740;BME280;4909;42.680;26.324;2022-09-09T01:02:37;98824.06;;;21.63;61.27
9740;BME280;4909;42.680;26.324;2022-09-09T01:05:12;98844.59;;;21.76;62.04
9740;BME280;4909;42.680;26.324;2022-09-09T01:07:44;98850.13;;;21.74;62.23
9740;BME280;4909;42.680;26.324;2022-09-09T01:10:22;98838.91;;;21.48;62.45
9740;BME280;4909;42.680;26.324;2022-09-09T01:12:53;98856.09;;;21.68;63.09
9740;BME280;4909;42.680;26.324;2022-09-09T01:15:27;98848.75;;;21.80;62.01
9740;BME280;4909;42.680;26.324;2022-09-09T01:18:00;98859.84;;;21.77;62.06
9740;BME280;4909;42.680;26.324;2022-09-09T01:20:33;98852.66;;;21.66;62.94
9740;BME280;4909;42.680;26.324;2022-09-09T01:23:20;98837.56;;;21.63;62.33
9740;BME280;4909;42.680;26.324;2022-09-09T01:26:14;98829.72;;;21.60;62.78
9740;BME280;4909;42.680;26.324;2022-09-09T01:28:44;98841.91;;;21.55;62.57
9740;BME280;4909;42.680;26.324;2022-09-09T01:31:18;98841.44;;;21.50;62.13
9740;BME280;4909;42.680;26.324;2022-09-09T01:33:46;98837.53;;;21.54;62.42
9740;BME280;4909;42.680;26.324;2022-09-09T01:36:17;98827.63;;;21.43;61.70
9740;BME280;4909;42.680;26.324;2022-09-09T01:38:46;98824.78;;;21.24;61.87
9740;BME280;4909;42.680;26.324;2022-09-09T01:41:14;98836.19;;;21.28;62.13
9740;BME280;4909;42.680;26.324;2022-09-09T01:43:41;98827.09;;;21.29;62.70
9740;BME280;4909;42.680;26.324;2022-09-09T01:46:09;98811.44;;;21.11;63.21
9740;BME280;4909;42.680;26.324;2022-09-09T01:48:36;98846.03;;;21.17;63.55
9740;BME280;4909;42.680;26.324;2022-09-09T01:51:03;98834.53;;;21.15;63.36
9740;BME280;4909;42.680;26.324;2022-09-09T01:53:30;98826.13;;;21.30;62.54
9740;BME280;4909;42.680;26.324;2022-09-09T01:56:05;98816.59;;;21.35;62.21
9740;BME280;4909;42.680;26.324;2022-09-09T01:58:47;98830.44;;;21.42;61.68
9740;BME280;4909;42.680;26.324;2022-09-09T02:01:27;98818.34;;;21.57;61.09
9740;BME280;4909;42.680;26.324;2022-09-09T02:04:04;98827.47;;;21.45;61.38
9740;BME280;4909;42.680;26.324;2022-09-09T02:06:36;98828.47;;;21.64;60.82
9740;BME280;4909;42.680;26.324;2022-09-09T02:09:05;98804.09;;;21.55;60.46
9740;BME280;4909;42.680;26.324;2022-09-09T02:11:34;98829.25;;;21.55;60.60
9740;BME280;4909;42.680;26.324;2022-09-09T02:14:07;98807.13;;;21.41;60.62
9740;BME280;4909;42.680;26.324;2022-09-09T02:16:39;98833.22;;;21.51;59.55
9740;BME280;4909;42.680;26.324;2022-09-09T02:19:13;98833.97;;;21.53;60.56
9740;BME280;4909;42.680;26.324;2022-09-09T02:21:44;98825.13;;;21.51;60.93
9740;BME280;4909;42.680;26.324;2022-09-09T02:24:14;98814.44;;;21.50;61.00
9740;BME280;4909;42.680;26.324;2022-09-09T02:26:44;98827.47;;;21.45;61.31
9740;BME280;4909;42.680;26.324;2022-09-09T02:29:16;98828.22;;;21.47;61.46
9740;BME280;4909;42.680;26.324;2022-09-09T02:31:46;98831.78;;;21.47;61.22
9740;BME280;4909;42.680;26.324;2022-09-09T02:34:15;98830.44;;;21.42;60.68
9740;BME280;4909;42.680;26.324;2022-09-09T02:36:46;98827.47;;;21.45;61.26
9740;BME280;4909;42.680;26.324;2022-09-09T02:39:14;98834.94;;;21.52;60.77
9740;BME280;4909;42.680;26.324;2022-09-09T02:41:42;98832.34;;;21.51;60.20
9740;BME280;4909;42.680;26.324;2022-09-09T02:44:10;98822.69;;;21.48;60.16
9740;BME280;4909;42.680;26.324;2022-09-09T02:46:57;98817.88;;;21.31;61.09
9740;BME280;4909;42.680;26.324;2022-09-09T02:49:35;98813.31;;;21.32;60.70
9740;BME280;4909;42.680;26.324;2022-09-09T02:52:08;98823.59;;;21.17;61.48
9740;BME280;4909;42.680;26.324;2022-09-09T02:54:41;98817.28;;;21.28;61.27
9740;BME280;4909;42.680;26.324;2022-09-09T02:57:11;98805.22;;;21.32;60.40
9740;BME280;4909;42.680;26.324;2022-09-09T02:59:39;98824.78;;;21.45;60.53
9740;BME280;4909;42.680;26.324;2022-09-09T03:02:08;98815.78;;;21.35;60.22
9740;BME280;4909;42.680;26.324;2022-09-09T03:04:35;98806.53;;;21.16;60.66
9740;BME280;4909;42.680;26.324;2022-09-09T03:07:02;98826.44;;;21.04;62.17
9740;BME280;4909;42.680;26.324;2022-09-09T03:09:30;98827.50;;;21.13;60.90
9740;BME280;4909;42.680;26.324;2022-09-09T03:11:57;98823.09;;;21.12;61.57
9740;BME280;4909;42.680;26.324;2022-09-09T03:14:24;98813.25;;;20.90;62.47
9740;BME280;4909;42.680;26.324;2022-09-09T03:16:51;98824.44;;;21.17;62.03
9740;BME280;4909;42.680;26.324;2022-09-09T03:19:20;98817.47;;;21.15;61.41
9740;BME280;4909;42.680;26.324;2022-09-09T03:21:47;98799.59;;;20.92;61.49
9740;BME280;4909;42.680;26.324;2022-09-09T03:24:14;98824.59;;;21.05;62.42
9740;BME280;4909;42.680;26.324;2022-09-09T03:26:42;98834.13;;;21.20;62.03
9740;BME280;4909;42.680;26.324;2022-09-09T03:29:10;98834.81;;;21.33;61.58
9740;BME280;4909;42.680;26.324;2022-09-09T03:31:38;98837.09;;;21.38;61.01
9740;BME280;4909;42.680;26.324;2022-09-09T03:34:05;98837.38;;;21.35;61.23
9740;BME280;4909;42.680;26.324;2022-09-09T03:36:33;98829.41;;;21.33;61.21
9740;BME280;4909;42.680;26.324;2022-09-09T03:39:00;98833.75;;;21.24;61.33
9740;BME280;4909;42.680;26.324;2022-09-09T03:41:28;98845.63;;;20.90;63.31
9740;BME280;4909;42.680;26.324;2022-09-09T03:43:55;98837.16;;;20.95;62.46
9740;BME280;4909;42.680;26.324;2022-09-09T03:46:23;98835.59;;;21.13;62.30
9740;BME280;4909;42.680;26.324;2022-09-09T03:48:51;98839.78;;;21.17;61.68
9740;BME280;4909;42.680;26.324;2022-09-09T03:51:19;98830.84;;;21.05;61.94
9740;BME280;4909;42.680;26.324;2022-09-09T03:53:48;98832.50;;;21.29;62.25
9740;BME280;4909;42.680;26.324;2022-09-09T03:56:15;98794.88;;;21.16;61.18
9740;BME280;4909;42.680;26.324;2022-09-09T03:58:42;98837.63;;;21.32;61.68
9740;BME280;4909;42.680;26.324;2022-09-09T04:01:12;98802.47;;;21.22;60.77
9740;BME280;4909;42.680;26.324;2022-09-09T04:03:39;98814.22;;;21.21;60.97
9740;BME280;4909;42.680;26.324;2022-09-09T04:06:09;98826.44;;;21.04;61.35
9740;BME280;4909;42.680;26.324;2022-09-09T04:08:37;98810.88;;;20.97;62.08
9740;BME280;4909;42.680;26.324;2022-09-09T04:11:06;98835.81;;;21.21;62.25
9740;BME280;4909;42.680;26.324;2022-09-09T04:13:34;98828.88;;;21.07;62.29
9740;BME280;4909;42.680;26.324;2022-09-09T04:16:03;98838.25;;;20.92;62.69
9740;BME280;4909;42.680;26.324;2022-09-09T04:18:30;98844.88;;;20.88;63.25
9740;BME280;4909;42.680;26.324;2022-09-09T04:20:57;98839.59;;;20.87;63.83
9740;BME280;4909;42.680;26.324;2022-09-09T04:23:25;98837.75;;;20.98;62.84
9740;BME280;4909;42.680;26.324;2022-09-09T04:25:55;98832.84;;;20.92;62.84
9740;BME280;4909;42.680;26.324;2022-09-09T04:28:25;98830.91;;;20.83;63.64
9740;BME280;4909;42.680;26.324;2022-09-09T04:30:52;98823.72;;;20.72;63.76
9740;BME280;4909;42.680;26.324;2022-09-09T04:33:19;98813.66;;;20.74;62.95
9740;BME280;4909;42.680;26.324;2022-09-09T04:35:48;98837.00;;;20.96;62.94
9740;BME280;4909;42.680;26.324;2022-09-09T04:38:16;98830.31;;;21.11;62.35
9740;BME280;4909;42.680;26.324;2022-09-09T04:40:43;98838.69;;;21.08;62.47
9740;BME280;4909;42.680;26.324;2022-09-09T04:43:11;98844.94;;;21.09;62.52
9740;BME280;4909;42.680;26.324;2022-09-09T04:45:41;98841.00;;;21.24;62.43
9740;BME280;4909;42.680;26.324;2022-09-09T04:48:08;98839.94;;;21.36;62.51
9740;BME280;4909;42.680;26.324;2022-09-09T04:50:36;98829.41;;;21.33;62.99
9740;BME280;4909;42.680;26.324;2022-09-09T04:53:03;98817.88;;;21.31;64.53
9740;BME280;4909;42.680;26.324;2022-09-09T04:55:31;98842.19;;;21.52;64.95
9740;BME280;4909;42.680;26.324;2022-09-09T04:58:03;98833.03;;;21.43;65.51
9740;BME280;4909;42.680;26.324;2022-09-09T05:00:30;98833.88;;;21.44;65.30
9740;BME280;4909;42.680;26.324;2022-09-09T05:03:02;98844.81;;;21.42;64.55
9740;BME280;4909;42.680;26.324;2022-09-09T05:05:29;98832.06;;;21.44;65.52
9740;BME280;4909;42.680;26.324;2022-09-09T05:08:01;98823.25;;;21.31;64.70
9740;BME280;4909;42.680;26.324;2022-09-09T05:10:28;98830.78;;;21.48;65.16
9740;BME280;4909;42.680;26.324;2022-09-09T05:12:55;98844.47;;;21.56;64.44
9740;BME280;4909;42.680;26.324;2022-09-09T05:15:22;98828.63;;;21.63;64.46
9740;BME280;4909;42.680;26.324;2022-09-09T05:17:49;98834.72;;;21.65;64.27
9740;BME280;4909;42.680;26.324;2022-09-09T05:20:19;98828.88;;;21.60;63.26
9740;BME280;4909;42.680;26.324;2022-09-09T05:22:46;98840.19;;;21.75;64.15
9740;BME280;4909;42.680;26.324;2022-09-09T05:25:14;98832.88;;;21.86;63.85
9740;BME280;4909;42.680;26.324;2022-09-09T05:27:41;98835.13;;;21.81;63.19
9740;BME280;4909;42.680;26.324;2022-09-09T05:30:09;98792.06;;;21.59;63.03
9740;BME280;4909;42.680;26.324;2022-09-09T05:32:36;98839.78;;;21.79;63.00
9740;BME280;4909;42.680;26.324;2022-09-09T05:35:03;98832.22;;;21.94;62.99
9740;BME280;4909;42.680;26.324;2022-09-09T05:37:32;98830.69;;;22.01;61.86
9740;BME280;4909;42.680;26.324;2022-09-09T05:39:59;98813.53;;;21.91;61.22
9740;BME280;4909;42.680;26.324;2022-09-09T05:42:29;98825.69;;;21.96;61.81
9740;BME280;4909;42.680;26.324;2022-09-09T05:44:57;98828.00;;;22.01;61.16
9740;BME280;4909;42.680;26.324;2022-09-09T05:47:24;98829.44;;;22.05;61.09
9740;BME280;4909;42.680;26.324;2022-09-09T05:49:53;98835.69;;;22.05;60.98
9740;BME280;4909;42.680;26.324;2022-09-09T05:52:20;98831.31;;;22.14;61.15
9740;BME280;4909;42.680;26.324;2022-09-09T05:54:49;98835.63;;;22.17;60.29
9740;BME280;4909;42.680;26.324;2022-09-09T05:57:16;98842.91;;;22.26;59.87
9740;BME280;4909;42.680;26.324;2022-09-09T05:59:44;98833.06;;;22.25;59.75
9740;BME280;4909;42.680;26.324;2022-09-09T06:02:12;98839.81;;;22.40;59.29
9740;BME280;4909;42.680;26.324;2022-09-09T06:04:39;98802.56;;;22.13;59.00
9740;BME280;4909;42.680;26.324;2022-09-09T06:07:05;98835.94;;;22.33;59.75
9740;BME280;4909;42.680;26.324;2022-09-09T06:09:35;98840.38;;;22.34;60.05
9740;BME280;4909;42.680;26.324;2022-09-09T06:12:04;98842.13;;;22.54;59.30
9740;BME280;4909;42.680;26.324;2022-09-09T06:14:31;98852.53;;;22.59;59.43
9740;BME280;4909;42.680;26.324;2022-09-09T06:16:58;98852.00;;;22.65;58.13
9740;BME280;4909;42.680;26.324;2022-09-09T06:19:25;98851.84;;;22.66;58.57
9740;BME280;4909;42.680;26.324;2022-09-09T06:21:52;98848.16;;;22.67;58.05
9740;BME280;4909;42.680;26.324;2022-09-09T06:24:20;98840.88;;;22.58;58.59
9740;BME280;4909;42.680;26.324;2022-09-09T06:26:47;98838.22;;;22.37;59.05
9740;BME280;4909;42.680;26.324;2022-09-09T06:29:15;98834.03;;;22.54;57.53
9740;BME280;4909;42.680;26.324;2022-09-09T06:31:45;98828.06;;;22.60;57.89
9740;BME280;4909;42.680;26.324;2022-09-09T06:34:13;98851.41;;;22.61;58.00
9740;BME280;4909;42.680;26.324;2022-09-09T06:36:39;98847.03;;;22.70;58.28
9740;BME280;4909;42.680;26.324;2022-09-09T06:39:07;98840.66;;;22.90;57.74
9740;BME280;4909;42.680;26.324;2022-09-09T06:41:35;98849.06;;;22.77;58.14
9740;BME280;4909;42.680;26.324;2022-09-09T06:44:04;98855.91;;;22.91;58.39
9740;BME280;4909;42.680;26.324;2022-09-09T06:46:32;98793.38;;;22.75;58.36
9740;BME280;4909;42.680;26.324;2022-09-09T06:49:00;98849.38;;;23.32;57.55
9740;BME280;4909;42.680;26.324;2022-09-09T06:51:29;98843.25;;;23.30;57.07
9740;BME280;4909;42.680;26.324;2022-09-09T06:53:58;98835.56;;;23.35;57.08
9740;BME280;4909;42.680;26.324;2022-09-09T06:56:28;98836.28;;;23.56;56.82
9740;BME280;4909;42.680;26.324;2022-09-09T06:58:57;98837.22;;;23.84;56.03
9740;BME280;4909;42.680;26.324;2022-09-09T07:01:25;98839.22;;;23.82;55.38
9740;BME280;4909;42.680;26.324;2022-09-09T07:03:55;98849.13;;;23.45;56.77
9740;BME280;4909;42.680;26.324;2022-09-09T07:06:28;98846.69;;;23.61;55.98
9740;BME280;4909;42.680;26.324;2022-09-09T07:08:56;98823.59;;;23.57;56.30
9740;BME280;4909;42.680;26.324;2022-09-09T07:11:26;98847.69;;;24.06;55.53
9740;BME280;4909;42.680;26.324;2022-09-09T07:13:54;98854.53;;;24.30;54.41
9740;BME280;4909;42.680;26.324;2022-09-09T07:16:22;98854.16;;;24.42;53.37
9740;BME280;4909;42.680;26.324;2022-09-09T07:18:50;98861.25;;;24.53;53.41
9740;BME280;4909;42.680;26.324;2022-09-09T07:21:19;98857.69;;;24.52;52.98
9740;BME280;4909;42.680;26.324;2022-09-09T07:23:46;98855.31;;;24.67;52.81
9740;BME280;4909;42.680;26.324;2022-09-09T07:26:15;98859.06;;;24.84;50.80
9740;BME280;4909;42.680;26.324;2022-09-09T07:28:44;98857.84;;;24.78;51.56
9740;BME280;4909;42.680;26.324;2022-09-09T07:31:14;98855.97;;;25.06;51.52
9740;BME280;4909;42.680;26.324;2022-09-09T07:33:42;98857.28;;;25.20;49.95
9740;BME280;4909;42.680;26.324;2022-09-09T07:36:12;98856.41;;;25.37;49.92
9740;BME280;4909;42.680;26.324;2022-09-09T07:38:42;98858.28;;;25.54;47.96
9740;BME280;4909;42.680;26.324;2022-09-09T07:41:12;98825.03;;;26.04;46.32
9740;BME280;4909;42.680;26.324;2022-09-09T07:43:40;98850.78;;;26.17;45.82
9740;BME280;4909;42.680;26.324;2022-09-09T07:46:08;98853.88;;;27.06;43.79
9740;BME280;4909;42.680;26.324;2022-09-09T07:48:35;98856.19;;;27.92;41.09
9740;BME280;4909;42.680;26.324;2022-09-09T07:51:07;98823.63;;;27.82;41.11
9740;BME280;4909;42.680;26.324;2022-09-09T07:53:34;98855.56;;;28.45;39.54
9740;BME280;4909;42.680;26.324;2022-09-09T07:56:07;98860.47;;;29.05;38.22
9740;BME280;4909;42.680;26.324;2022-09-09T07:58:35;98863.94;;;29.44;35.87
9740;BME280;4909;42.680;26.324;2022-09-09T08:01:07;98841.91;;;28.45;38.10
9740;BME280;4909;42.680;26.324;2022-09-09T08:03:35;98844.81;;;29.44;36.13
9740;BME280;4909;42.680;26.324;2022-09-09T08:06:02;98830.13;;;30.20;34.61
9740;BME280;4909;42.680;26.324;2022-09-09T08:08:29;98841.88;;;30.94;33.60
9740;BME280;4909;42.680;26.324;2022-09-09T08:11:08;98829.03;;;31.30;31.83
9740;BME280;4909;42.680;26.324;2022-09-09T08:13:36;98838.38;;;32.06;31.05
9740;BME280;4909;42.680;26.324;2022-09-09T08:16:07;98824.03;;;32.04;31.05
9740;BME280;4909;42.680;26.324;2022-09-09T08:18:34;98832.97;;;31.85;30.63
9740;BME280;4909;42.680;26.324;2022-09-09T08:21:08;98837.22;;;32.50;29.73
9740;BME280;4909;42.680;26.324;2022-09-09T08:23:38;98838.63;;;32.39;30.61
9740;BME280;4909;42.680;26.324;2022-09-09T08:26:10;98835.22;;;31.81;30.76
9740;BME280;4909;42.680;26.324;2022-09-09T08:28:39;98824.50;;;31.01;32.84
9740;BME280;4909;42.680;26.324;2022-09-09T08:31:08;98827.13;;;30.95;32.42
9740;BME280;4909;42.680;26.324;2022-09-09T08:33:36;98806.59;;;30.55;32.30
9740;BME280;4909;42.680;26.324;2022-09-09T08:36:04;98815.38;;;30.21;31.84
9740;BME280;4909;42.680;26.324;2022-09-09T08:38:32;98824.66;;;30.20;32.21
9740;BME280;4909;42.680;26.324;2022-09-09T08:41:11;98819.81;;;29.32;33.71
9740;BME280;4909;42.680;26.324;2022-09-09T08:43:44;98823.00;;;29.36;34.20
9740;BME280;4909;42.680;26.324;2022-09-09T08:46:19;98830.94;;;29.68;33.30
9740;BME280;4909;42.680;26.324;2022-09-09T08:48:55;98827.47;;;29.74;33.21
9740;BME280;4909;42.680;26.324;2022-09-09T08:51:26;98820.66;;;29.70;32.99
9740;BME280;4909;42.680;26.324;2022-09-09T08:53:56;98824.00;;;29.43;33.71
9740;BME280;4909;42.680;26.324;2022-09-09T08:56:26;98833.13;;;29.73;34.12
9740;BME280;4909;42.680;26.324;2022-09-09T08:58:55;98812.56;;;30.14;33.35
9740;BME280;4909;42.680;26.324;2022-09-09T09:01:47;98812.66;;;30.50;31.78
9740;BME280;4909;42.680;26.324;2022-09-09T09:04:29;98766.00;;;30.14;32.15
9740;BME280;4909;42.680;26.324;2022-09-09T09:07:05;98804.81;;;30.18;31.68
9740;BME280;4909;42.680;26.324;2022-09-09T09:09:45;98804.69;;;29.97;32.42
9740;BME280;4909;42.680;26.324;2022-09-09T09:12:20;98797.63;;;30.17;33.21
9740;BME280;4909;42.680;26.324;2022-09-09T09:14:48;98790.53;;;30.67;31.74
9740;BME280;4909;42.680;26.324;2022-09-09T09:17:18;98784.16;;;30.81;30.85
9740;BME280;4909;42.680;26.324;2022-09-09T09:19:46;98787.25;;;30.92;30.09
9740;BME280;4909;42.680;26.324;2022-09-09T09:22:18;98787.72;;;30.96;31.14
9740;BME280;4909;42.680;26.324;2022-09-09T09:24:52;98789.13;;;30.27;30.57
9740;BME280;4909;42.680;26.324;2022-09-09T09:27:31;98784.69;;;29.59;31.96
9740;BME280;4909;42.680;26.324;2022-09-09T09:29:59;98786.94;;;29.55;32.96
9740;BME280;4909;42.680;26.324;2022-09-09T09:32:31;98788.97;;;29.76;33.15
9740;BME280;4909;42.680;26.324;2022-09-09T09:35:02;98780.00;;;29.67;33.33
9740;BME280;4909;42.680;26.324;2022-09-09T09:37:36;98780.63;;;29.55;33.75
9740;BME280;4909;42.680;26.324;2022-09-09T09:40:10;98783.38;;;29.55;33.43
9740;BME280;4909;42.680;26.324;2022-09-09T09:42:48;98782.22;;;29.49;32.66
9740;BME280;4909;42.680;26.324;2022-09-09T09:45:23;98783.78;;;29.44;33.13
9740;BME280;4909;42.680;26.324;2022-09-09T09:47:58;98773.78;;;29.13;33.93
9740;BME280;4909;42.680;26.324;2022-09-09T09:50:25;98755.06;;;29.02;34.03
9740;BME280;4909;42.680;26.324;2022-09-09T09:52:56;98786.66;;;29.05;35.00
9740;BME280;4909;42.680;26.324;2022-09-09T09:55:24;98769.09;;;29.22;34.17
9740;BME280;4909;42.680;26.324;2022-09-09T09:58:00;98774.97;;;29.11;34.59
9740;BME280;4909;42.680;26.324;2022-09-09T10:00:28;98773.56;;;29.15;34.84
9740;BME280;4909;42.680;26.324;2022-09-09T10:02:54;98766.28;;;29.30;34.61
9740;BME280;4909;42.680;26.324;2022-09-09T10:05:23;98766.66;;;29.27;34.70
9740;BME280;4909;42.680;26.324;2022-09-09T10:08:01;98775.84;;;29.34;34.67
9740;BME280;4909;42.680;26.324;2022-09-09T10:10:37;98770.97;;;29.44;34.58
9740;BME280;4909;42.680;26.324;2022-09-09T10:13:13;98764.38;;;29.53;35.36
9740;BME280;4909;42.680;26.324;2022-09-09T10:15:50;98765.97;;;29.25;35.34
9740;BME280;4909;42.680;26.324;2022-09-09T10:18:41;98765.75;;;28.89;36.21
9740;BME280;4909;42.680;26.324;2022-09-09T10:21:20;98759.03;;;29.00;36.42
9740;BME280;4909;42.680;26.324;2022-09-09T10:24:05;98755.38;;;28.84;35.98
9740;BME280;4909;42.680;26.324;2022-09-09T10:26:42;98749.78;;;28.78;36.37
9740;BME280;4909;42.680;26.324;2022-09-09T10:29:23;98750.44;;;28.80;37.00
9740;BME280;4909;42.680;26.324;2022-09-09T10:32:05;98745.59;;;28.90;36.09
9740;BME280;4909;42.680;26.324;2022-09-09T10:34:50;98702.47;;;28.77;36.52
9740;BME280;4909;42.680;26.324;2022-09-09T10:37:27;98746.88;;;29.02;36.31
9740;BME280;4909;42.680;26.324;2022-09-09T10:40:12;98751.09;;;29.27;35.63
9740;BME280;4909;42.680;26.324;2022-09-09T10:42:42;98742.69;;;29.14;35.35
9740;BME280;4909;42.680;26.324;2022-09-09T10:45:17;98746.16;;;29.31;34.91
9740;BME280;4909;42.680;26.324;2022-09-09T10:48:06;98736.91;;;29.32;35.88
9740;BME280;4909;42.680;26.324;2022-09-09T10:50:45;98741.47;;;29.17;36.09
9740;BME280;4909;42.680;26.324;2022-09-09T10:53:25;98743.63;;;29.21;35.83
9740;BME280;4909;42.680;26.324;2022-09-09T10:55:59;98737.38;;;29.13;35.94
9740;BME280;4909;42.680;26.324;2022-09-09T10:58:33;98739.97;;;28.52;36.02
9740;BME280;4909;42.680;26.324;2022-09-09T11:01:11;98729.03;;;28.61;36.92
9740;BME280;4909;42.680;26.324;2022-09-09T11:03:42;98735.25;;;28.77;36.99
9740;BME280;4909;42.680;26.324;2022-09-09T11:06:14;98719.97;;;29.14;36.08
9740;BME280;4909;42.680;26.324;2022-09-09T11:08:42;98693.91;;;29.03;35.51
9740;BME280;4909;42.680;26.324;2022-09-09T11:11:12;98694.56;;;29.05;36.04
9740;BME280;4909;42.680;26.324;2022-09-09T11:13:45;98705.41;;;28.99;35.79
9740;BME280;4909;42.680;26.324;2022-09-09T11:16:23;98709.16;;;28.98;36.35
9740;BME280;4909;42.680;26.324;2022-09-09T11:18:55;98711.03;;;28.97;36.56
9740;BME280;4909;42.680;26.324;2022-09-09T11:21:28;98706.03;;;29.01;36.33
9740;BME280;4909;42.680;26.324;2022-09-09T11:23:59;98702.28;;;29.02;36.37
9740;BME280;4909;42.680;26.324;2022-09-09T11:26:31;98675.34;;;28.76;36.37
9740;BME280;4909;42.680;26.324;2022-09-09T11:29:36;98693.31;;;28.93;35.69
9740;BME280;4909;42.680;26.324;2022-09-09T11:32:18;98692.41;;;28.78;36.05
9740;BME280;4909;42.680;26.324;2022-09-09T11:34:54;98682.25;;;28.86;36.42
9740;BME280;4909;42.680;26.324;2022-09-09T11:40:38;98689.53;;;28.71;36.28
9740;BME280;4909;42.680;26.324;2022-09-09T11:43:09;98682.94;;;28.58;36.99
9740;BME280;4909;42.680;26.324;2022-09-09T11:45:39;98652.72;;;28.36;36.18
9740;BME280;4909;42.680;26.324;2022-09-09T11:48:23;98664.75;;;28.50;36.91
9740;BME280;4909;42.680;26.324;2022-09-09T11:50:59;98667.41;;;28.58;37.27
9740;BME280;4909;42.680;26.324;2022-09-09T11:53:26;98666.53;;;28.66;37.14
9740;BME280;4909;42.680;26.324;2022-09-09T11:56:12;98645.88;;;28.63;36.71
9740;BME280;4909;42.680;26.324;2022-09-09T11:58:53;98663.78;;;28.66;36.73
9740;BME280;4909;42.680;26.324;2022-09-09T12:01:37;98655.00;;;28.56;36.52
9740;BME280;4909;42.680;26.324;2022-09-09T12:04:12;98664.81;;;28.65;36.74
9740;BME280;4909;42.680;26.324;2022-09-09T12:06:44;98666.84;;;28.71;37.13
9740;BME280;4909;42.680;26.324;2022-09-09T12:09:22;98645.28;;;28.76;36.64
9740;BME280;4909;42.680;26.324;2022-09-09T12:11:50;98643.91;;;28.80;36.19
9740;BME280;4909;42.680;26.324;2022-09-09T12:14:21;98639.47;;;28.79;36.54
9740;BME280;4909;42.680;26.324;2022-09-09T12:16:49;98646.09;;;28.84;36.56
9740;BME280;4909;42.680;26.324;2022-09-09T12:19:19;98634.56;;;28.74;36.47
9740;BME280;4909;42.680;26.324;2022-09-09T12:21:53;98642.25;;;28.71;36.25
9740;BME280;4909;42.680;26.324;2022-09-09T12:24:28;98635.97;;;28.62;36.39
9740;BME280;4909;42.680;26.324;2022-09-09T12:27:02;98631.66;;;28.68;36.35
9740;BME280;4909;42.680;26.324;2022-09-09T12:29:38;98623.97;;;28.71;36.69
9740;BME280;4909;42.680;26.324;2022-09-09T12:32:10;98626.84;;;28.78;37.26
9740;BME280;4909;42.680;26.324;2022-09-09T12:34:40;98622.09;;;28.72;36.12
9740;BME280;4909;42.680;26.324;2022-09-09T12:37:16;98604.91;;;28.63;36.54
9740;BME280;4909;42.680;26.324;2022-09-09T12:39:48;98582.84;;;28.50;36.78
9740;BME280;4909;42.680;26.324;2022-09-09T12:42:18;98604.19;;;28.69;36.64
9740;BME280;4909;42.680;26.324;2022-09-09T12:44:53;98611.91;;;28.66;36.46
9740;BME280;4909;42.680;26.324;2022-09-09T12:47:24;98593.84;;;28.57;36.91
9740;BME280;4909;42.680;26.324;2022-09-09T12:49:54;98592.84;;;28.58;36.33
9740;BME280;4909;42.680;26.324;2022-09-09T12:52:26;98595.47;;;28.51;37.03
9740;BME280;4909;42.680;26.324;2022-09-09T12:54:56;98577.34;;;28.27;37.51
9740;BME280;4909;42.680;26.324;2022-09-09T12:57:24;98582.59;;;28.60;36.75
9740;BME280;4909;42.680;26.324;2022-09-09T12:59:52;98586.22;;;28.52;36.55
9740;BME280;4909;42.680;26.324;2022-09-09T13:02:21;98575.50;;;28.50;37.15
9740;BME280;4909;42.680;26.324;2022-09-09T13:04:48;98561.47;;;28.53;36.84
9740;BME280;4909;42.680;26.324;2022-09-09T13:07:18;98550.72;;;28.52;37.20
9740;BME280;4909;42.680;26.324;2022-09-09T13:09:46;98566.00;;;28.61;36.74
9740;BME280;4909;42.680;26.324;2022-09-09T13:12:16;98551.47;;;28.46;36.58
9740;BME280;4909;42.680;26.324;2022-09-09T13:14:45;98555.16;;;28.53;37.23
9740;BME280;4909;42.680;26.324;2022-09-09T13:17:20;98569.34;;;28.71;37.30
9740;BME280;4909;42.680;26.324;2022-09-09T13:19:48;98560.53;;;28.61;36.87
9740;BME280;4909;42.680;26.324;2022-09-09T13:22:26;98563.38;;;28.68;37.19
9740;BME280;4909;42.680;26.324;2022-09-09T13:25:05;98564.59;;;28.88;36.35
9740;BME280;4909;42.680;26.324;2022-09-09T13:27:34;98557.44;;;28.87;35.72
9740;BME280;4909;42.680;26.324;2022-09-09T13:30:19;98534.13;;;28.76;36.38
9740;BME280;4909;42.680;26.324;2022-09-09T13:32:48;98548.09;;;28.81;36.32
9740;BME280;4909;42.680;26.324;2022-09-09T13:35:26;98552.69;;;28.81;36.85